Time;durP1;ratioP1;P1;durP2;ratioP2;P2;SDS_P1;SDS_P2;PMS_P1;PMS_P2;Temp;Humidity;BMP_temperature;BMP_pressure;BME280_temperature;BME280_humidity;BME280_pressure;Samples;Min_cycle;Max_cycle;Signal;HPM_P1;HPM_P2
2022/04/03 00:00:31;;;;;;;3.30;3.10;;;;;;;2.44;59.12;101438.03;4975674;28;20248;-71
2022/04/03 00:02:57;;;;;;;3.03;2.83;;;;;;;2.49;59.62;101437.84;4949300;28;20046;-69
2022/04/03 00:05:22;;;;;;;3.10;2.90;;;;;;;2.53;59.03;101434.16;4948471;28;20019;-69
2022/04/03 00:07:47;;;;;;;3.10;2.90;;;;;;;2.58;58.97;101437.41;4949573;28;20117;-68
2022/04/03 00:10:14;;;;;;;2.50;2.40;;;;;;;2.63;59.28;101440.69;4962901;28;20003;-69
2022/04/03 00:12:40;;;;;;;2.60;2.50;;;;;;;2.62;59.28;101438.13;4950534;28;20133;-69
2022/04/03 00:15:05;;;;;;;3.15;2.90;;;;;;;2.44;59.21;101439.78;4932800;28;20019;-68
2022/04/03 00:17:31;;;;;;;3.28;3.05;;;;;;;2.43;59.95;101444.19;4954838;28;20047;-68
2022/04/03 00:19:56;;;;;;;3.03;2.83;;;;;;;2.52;59.19;101442.91;4957160;28;20019;-69
2022/04/03 00:22:22;;;;;;;3.63;2.47;;;;;;;2.57;59.49;101438.34;4954759;28;20542;-69
2022/04/03 00:24:47;;;;;;;3.00;2.70;;;;;;;2.54;59.59;101441.94;4930665;28;20256;-70
2022/04/03 00:27:13;;;;;;;3.20;2.70;;;;;;;2.50;59.59;101445.59;4949127;28;20034;-70
2022/04/03 00:29:38;;;;;;;3.17;2.90;;;;;;;2.74;59.25;101437.59;4970429;28;20010;-68
2022/04/03 00:32:04;;;;;;;2.80;2.60;;;;;;;2.67;58.77;101442.25;4962717;28;20083;-68
2022/04/03 00:34:30;;;;;;;4.13;2.67;;;;;;;2.58;58.93;101437.41;4951719;28;20462;-69
2022/04/03 00:36:55;;;;;;;3.30;3.10;;;;;;;2.60;59.77;101446.03;4950797;28;20901;-69
2022/04/03 00:39:21;;;;;;;3.22;2.90;;;;;;;2.57;59.92;101444.41;4966318;28;20034;-69
2022/04/03 00:41:46;;;;;;;3.00;2.80;;;;;;;2.60;59.68;101445.22;4968086;28;21057;-69
2022/04/03 00:44:11;;;;;;;2.97;2.78;;;;;;;2.46;59.62;101443.19;4969163;28;20039;-69
2022/04/03 00:46:37;;;;;;;4.05;2.80;;;;;;;2.56;59.95;101452.31;4958181;28;20027;-69
2022/04/03 00:49:02;;;;;;;3.05;2.85;;;;;;;2.52;60.28;101453.38;4951670;28;20192;-68
2022/04/03 00:51:28;;;;;;;2.95;2.75;;;;;;;2.51;60.78;101447.31;4931304;28;20019;-69
2022/04/03 00:53:53;;;;;;;3.08;2.83;;;;;;;2.54;60.58;101451.56;4966620;28;20026;-68
2022/04/03 00:56:19;;;;;;;4.15;2.83;;;;;;;2.44;60.75;101443.25;4969023;28;20729;-67
2022/04/03 00:58:44;;;;;;;2.95;2.72;;;;;;;2.42;60.40;101450.31;4953688;28;20686;-68
2022/04/03 01:01:10;;;;;;;4.80;2.97;;;;;;;2.53;60.04;101440.22;4926836;28;20019;-70
2022/04/03 01:03:36;;;;;;;3.30;3.10;;;;;;;2.49;60.21;101445.66;4936108;28;20050;-69
2022/04/03 01:06:01;;;;;;;5.65;3.25;;;;;;;2.63;59.68;101439.84;4944435;28;20061;-69
2022/04/03 01:08:27;;;;;;;3.15;2.95;;;;;;;2.53;59.81;101439.41;4971381;28;20014;-69
2022/04/03 01:10:52;;;;;;;3.30;2.97;;;;;;;2.35;61.03;101441.03;4963043;28;20033;-71
2022/04/03 01:13:17;;;;;;;3.38;3.08;;;;;;;2.46;60.18;101443.19;4958916;28;20950;-69
2022/04/03 01:15:53;;;;;;;3.90;3.05;;;;;;;2.34;60.73;101442.81;4966946;28;20808;-69
2022/04/03 01:18:18;;;;;;;4.03;3.20;;;;;;;2.37;60.26;101440.06;4971250;28;20367;-69
2022/04/03 01:20:44;;;;;;;3.28;3.08;;;;;;;2.49;60.32;101435.22;4961479;28;20885;-68
2022/04/03 01:23:09;;;;;;;3.15;2.95;;;;;;;2.37;60.12;101434.00;4947531;28;20027;-69
2022/04/03 01:25:34;;;;;;;3.35;3.03;;;;;;;2.35;60.78;101431.44;4951255;28;20014;-68
2022/04/03 01:28:00;;;;;;;3.53;3.20;;;;;;;2.50;60.92;101431.69;4969750;28;20014;-68
2022/04/03 01:30:25;;;;;;;3.08;2.85;;;;;;;2.47;60.38;101444.88;4961398;28;20014;-69
2022/04/03 01:32:51;;;;;;;3.17;2.97;;;;;;;2.50;60.23;101439.53;4967375;28;20194;-69
2022/04/03 01:35:17;;;;;;;2.92;2.72;;;;;;;2.49;60.13;101437.84;4963975;28;20014;-69
2022/04/03 01:37:42;;;;;;;3.28;3.05;;;;;;;2.44;60.43;101442.41;4946079;28;20777;-69
2022/04/03 01:40:08;;;;;;;3.35;3.15;;;;;;;2.38;60.95;101439.16;4933980;28;20027;-69
2022/04/03 01:42:34;;;;;;;3.47;3.08;;;;;;;2.27;61.15;101444.00;4937330;28;20130;-69
2022/04/03 01:44:59;;;;;;;3.25;3.08;;;;;;;2.34;60.86;101441.94;4953922;28;20102;-68
2022/04/03 01:47:24;;;;;;;4.13;3.08;;;;;;;2.34;60.71;101450.66;4950579;28;20015;-68
2022/04/03 01:49:50;;;;;;;3.30;3.00;;;;;;;2.29;61.25;101443.94;4956245;28;20826;-71
2022/04/03 01:52:15;;;;;;;4.40;3.50;;;;;;;2.19;61.70;101440.88;4918726;28;20023;-72
2022/04/03 01:54:41;;;;;;;5.93;3.22;;;;;;;2.29;61.63;101444.75;4951619;28;20023;-68
2022/04/03 01:57:06;;;;;;;3.50;3.20;;;;;;;2.25;61.57;101450.19;4954745;28;20011;-68
2022/04/03 01:59:32;;;;;;;3.85;3.40;;;;;;;2.30;61.59;101441.25;4937368;28;20470;-68
2022/04/03 02:01:57;;;;;;;3.22;3.03;;;;;;;2.17;62.15;101442.69;4963971;28;20015;-69
2022/04/03 02:04:23;;;;;;;3.25;3.05;;;;;;;2.25;62.29;101447.59;4945819;28;20019;-68
2022/04/03 02:06:51;;;;;;;3.40;3.10;;;;;;;2.15;62.32;101444.50;4961206;28;20002;-68
2022/04/03 02:09:16;;;;;;;3.45;3.25;;;;;;;2.12;61.80;101440.28;4973087;28;20203;-68
2022/04/03 02:11:42;;;;;;;3.60;3.30;;;;;;;2.11;62.43;101450.78;4935439;28;20532;-68
2022/04/03 02:14:07;;;;;;;3.63;2.88;;;;;;;2.17;62.25;101438.31;4971447;28;20037;-70
2022/04/03 02:16:33;;;;;;;3.75;3.13;;;;;;;2.20;62.69;101434.69;4934945;28;20344;-69
2022/04/03 02:18:58;;;;;;;3.40;3.20;;;;;;;2.21;62.52;101444.25;4935302;28;20068;-68
2022/04/03 02:21:23;;;;;;;3.25;3.05;;;;;;;2.37;62.28;101450.50;4959005;28;21082;-68
2022/04/03 02:23:49;;;;;;;3.55;3.28;;;;;;;2.39;62.10;101438.22;4936845;28;20171;-71
2022/04/03 02:26:14;;;;;;;4.05;3.33;;;;;;;2.20;62.44;101442.53;4935287;28;20033;-69
2022/04/03 02:28:39;;;;;;;3.25;3.05;;;;;;;2.18;62.47;101449.59;4953373;28;20088;-69
2022/04/03 02:31:05;;;;;;;3.65;3.35;;;;;;;2.27;62.04;101441.38;4957951;28;20018;-69
2022/04/03 02:33:30;;;;;;;3.20;3.00;;;;;;;2.20;62.18;101450.38;4952932;28;20026;-68
2022/04/03 02:35:55;;;;;;;3.33;3.03;;;;;;;2.14;62.42;101442.81;4951198;28;20014;-69
2022/04/03 02:38:21;;;;;;;3.83;3.53;;;;;;;2.08;62.79;101450.91;4950633;28;20092;-69
2022/04/03 02:40:46;;;;;;;3.75;3.45;;;;;;;2.12;62.49;101457.69;4932334;28;20641;-69
2022/04/03 02:43:12;;;;;;;3.50;3.30;;;;;;;2.12;62.52;101444.66;4934379;28;20030;-71
2022/04/03 02:45:38;;;;;;;3.78;3.47;;;;;;;2.06;62.75;101433.53;4949258;28;20443;-71
2022/04/03 02:48:04;;;;;;;4.05;3.60;;;;;;;1.98;62.71;101458.28;4936612;28;20073;-67
2022/04/03 02:50:29;;;;;;;3.65;3.45;;;;;;;2.24;62.51;101449.31;4958916;28;20015;-69
2022/04/03 02:52:55;;;;;;;3.60;3.40;;;;;;;2.32;62.55;101447.25;4935397;28;20023;-70
2022/04/03 02:55:21;;;;;;;6.43;3.53;;;;;;;2.26;62.71;101450.13;4933785;28;20025;-68
2022/04/03 02:57:46;;;;;;;3.58;3.38;;;;;;;2.09;62.91;101444.75;4953940;28;20018;-68
2022/04/03 03:00:15;;;;;;;4.18;3.75;;;;;;;2.18;62.55;101442.59;4944458;28;20976;-68
2022/04/03 03:02:41;;;;;;;4.03;3.55;;;;;;;2.19;62.76;101441.69;4950364;28;20031;-69
2022/04/03 03:05:07;;;;;;;3.38;3.13;;;;;;;2.32;63.55;101444.63;4966458;28;20034;-68
2022/04/03 03:07:37;;;;;;;3.70;3.50;;;;;;;2.37;63.09;101444.44;4973381;28;20111;-69
2022/04/03 03:10:03;;;;;;;3.80;3.60;;;;;;;2.10;64.81;101443.84;4973244;28;20220;-68
2022/04/03 03:12:29;;;;;;;4.28;3.30;;;;;;;2.04;64.33;101448.41;4953330;28;20135;-71
2022/04/03 03:14:56;;;;;;;3.90;3.50;;;;;;;2.07;64.76;101457.88;4971043;28;20021;-70
2022/04/03 03:17:22;;;;;;;3.80;3.50;;;;;;;1.97;64.62;101454.78;4973881;28;20021;-70
2022/04/03 03:19:47;;;;;;;3.97;3.58;;;;;;;2.06;64.47;101457.03;4952116;28;20007;-71
2022/04/03 03:22:13;;;;;;;4.40;4.03;;;;;;;2.21;63.77;101452.94;4962840;28;20010;-70
2022/04/03 03:24:38;;;;;;;3.88;3.58;;;;;;;1.99;64.55;101455.59;4957653;28;20206;-70
2022/04/03 03:27:04;;;;;;;3.47;3.28;;;;;;;1.82;64.70;101458.03;4949962;28;20032;-71
2022/04/03 03:29:30;;;;;;;3.80;3.50;;;;;;;1.78;66.18;101457.34;4951647;28;20069;-70
2022/04/03 03:31:55;;;;;;;4.13;3.63;;;;;;;1.85;66.26;101452.72;4940734;28;20735;-70
2022/04/03 03:34:20;;;;;;;3.83;3.50;;;;;;;2.01;65.71;101452.91;4943999;28;20022;-69
2022/04/03 03:36:46;;;;;;;3.85;3.55;;;;;;;2.05;66.56;101457.09;4950916;28;20034;-72
2022/04/03 03:39:12;;;;;;;3.58;3.28;;;;;;;1.87;66.54;101456.09;4970550;28;20022;-70
2022/04/03 03:41:37;;;;;;;3.90;3.55;;;;;;;1.85;66.88;101458.78;4971227;28;20010;-69
2022/04/03 03:44:09;;;;;;;3.90;3.60;;;;;;;1.94;66.63;101456.69;4971990;28;20920;-69
2022/04/03 03:46:36;;;;;;;3.85;3.65;;;;;;;1.83;67.12;101454.53;4953828;28;20623;-70
2022/04/03 03:49:01;;;;;;;4.00;3.70;;;;;;;1.58;67.60;101458.16;4932780;28;20805;-69
2022/04/03 03:51:26;;;;;;;3.70;3.50;;;;;;;1.47;68.42;101452.50;4955921;28;20034;-70
2022/04/03 03:53:52;;;;;;;3.90;3.70;;;;;;;1.49;69.09;101455.88;4938385;28;20378;-70
2022/04/03 03:56:18;;;;;;;4.32;3.60;;;;;;;1.44;68.89;101457.81;4969285;28;20186;-69
2022/04/03 03:58:43;;;;;;;6.70;4.03;;;;;;;1.49;69.06;101466.31;4947473;28;20042;-70
2022/04/03 04:01:08;;;;;;;4.10;3.70;;;;;;;1.43;69.00;101471.78;4948936;28;20022;-70
2022/04/03 04:03:34;;;;;;;5.65;3.92;;;;;;;1.42;69.36;101463.09;4950454;28;20057;-70
2022/04/03 04:05:59;;;;;;;4.07;3.78;;;;;;;1.30;69.01;101472.25;4969289;28;20120;-69
2022/04/03 04:08:24;;;;;;;4.38;3.97;;;;;;;1.29;69.36;101473.16;4962683;28;20897;-69
2022/04/03 04:10:50;;;;;;;4.13;3.83;;;;;;;1.48;69.08;101475.91;4948593;28;20263;-69
2022/04/03 04:13:15;;;;;;;4.10;3.80;;;;;;;1.47;68.42;101478.59;4948056;28;20017;-70
2022/04/03 04:15:41;;;;;;;5.70;3.90;;;;;;;1.52;68.56;101481.84;4953792;28;20015;-71
2022/04/03 04:18:07;;;;;;;5.03;4.10;;;;;;;1.59;68.28;101485.91;4955703;28;20428;-68
2022/04/03 04:20:33;;;;;;;5.18;4.35;;;;;;;1.53;68.33;101486.16;4963147;28;20021;-71
2022/04/03 04:22:58;;;;;;;4.05;3.75;;;;;;;1.48;68.49;101494.16;4946140;28;20041;-71
2022/04/03 04:25:23;;;;;;;4.70;3.85;;;;;;;1.23;69.09;101480.34;4935225;28;20153;-71
2022/04/03 04:27:49;;;;;;;4.28;3.97;;;;;;;1.12;69.82;101491.22;4968317;28;20003;-70
2022/04/03 04:30:14;;;;;;;4.60;4.20;;;;;;;1.20;69.80;101487.41;4960655;28;20352;-69
2022/04/03 04:32:40;;;;;;;4.57;4.22;;;;;;;1.13;70.38;101491.16;4964662;28;20022;-69
2022/04/03 04:35:05;;;;;;;4.72;3.90;;;;;;;0.98;70.27;101492.56;4948406;28;20389;-70
2022/04/03 04:37:31;;;;;;;5.45;4.10;;;;;;;1.03;70.81;101495.84;4946855;28;20273;-68
2022/04/03 04:39:56;;;;;;;4.22;3.90;;;;;;;1.16;70.40;101495.41;4949542;28;20059;-72
2022/04/03 04:42:22;;;;;;;3.90;3.60;;;;;;;0.91;71.03;101495.44;4935510;28;20019;-70
2022/04/03 04:44:47;;;;;;;5.72;3.92;;;;;;;1.03;70.24;101501.06;4934945;28;20049;-70
2022/04/03 04:47:12;;;;;;;4.63;4.13;;;;;;;0.98;70.54;101497.75;4936258;28;20483;-70
2022/04/03 04:49:38;;;;;;;4.57;4.20;;;;;;;1.16;70.54;101506.66;4957049;28;20018;-70
2022/04/03 04:52:03;;;;;;;3.90;3.50;;;;;;;1.35;70.20;101509.44;4962098;28;20025;-68
2022/04/03 04:54:30;;;;;;;3.78;3.58;;;;;;;1.37;70.16;101507.63;4947973;28;20026;-71
2022/04/03 04:56:55;;;;;;;3.95;3.67;;;;;;;1.23;70.31;101498.59;4949573;28;20046;-70
2022/04/03 04:59:21;;;;;;;4.72;4.07;;;;;;;0.86;71.44;101508.63;4935702;28;20347;-70
2022/04/03 05:01:46;;;;;;;6.03;3.97;;;;;;;0.93;71.05;101514.47;4960162;28;20030;-70
2022/04/03 05:04:11;;;;;;;4.88;4.22;;;;;;;1.09;70.52;101515.63;4953121;28;20966;-71
2022/04/03 05:06:37;;;;;;;4.50;3.92;;;;;;;1.03;70.90;101521.91;4967129;28;20045;-69
2022/04/03 05:09:05;;;;;;;4.53;4.20;;;;;;;0.92;70.96;101523.22;4968955;28;20014;-71
2022/04/03 05:11:31;;;;;;;5.25;4.78;;;;;;;0.92;70.58;101528.44;4951811;28;20006;-72
2022/04/03 05:13:57;;;;;;;4.47;4.07;;;;;;;0.62;71.42;101521.66;4952796;28;20064;-69
2022/04/03 05:16:23;;;;;;;7.53;4.45;;;;;;;0.76;71.38;101528.97;4972861;28;20242;-67
2022/04/03 05:18:48;;;;;;;6.72;4.28;;;;;;;0.88;70.83;101527.69;4970433;28;20391;-71
2022/04/03 05:21:13;;;;;;;4.45;4.05;;;;;;;0.71;70.87;101524.84;4949069;28;20013;-72
2022/04/03 05:23:39;;;;;;;4.63;4.20;;;;;;;0.60;72.03;101528.63;4970575;28;20034;-71
2022/04/03 05:26:05;;;;;;;4.85;4.40;;;;;;;0.74;72.04;101535.13;4955301;28;20002;-71
2022/04/03 05:28:30;;;;;;;4.53;4.15;;;;;;;0.77;71.24;101535.03;4939276;28;20014;-71
2022/04/03 05:30:55;;;;;;;4.32;4.03;;;;;;;0.59;72.30;101540.00;4947546;28;20275;-68
2022/04/03 05:33:21;;;;;;;4.30;4.00;;;;;;;0.77;72.42;101541.06;4952183;28;20644;-69
2022/04/03 05:35:46;;;;;;;4.57;4.00;;;;;;;0.84;72.24;101552.13;4953540;28;20428;-69
2022/04/03 05:38:12;;;;;;;6.18;4.35;;;;;;;0.95;71.90;101550.00;4960636;28;20019;-70
2022/04/03 05:40:38;;;;;;;4.53;4.13;;;;;;;0.85;72.14;101554.69;4963039;28;20025;-70
2022/04/03 05:43:03;;;;;;;5.47;4.18;;;;;;;0.82;71.96;101553.97;4956494;28;20033;-69
2022/04/03 05:45:29;;;;;;;5.82;4.78;;;;;;;0.72;71.92;101547.34;4950523;28;20810;-69
2022/04/03 05:47:54;;;;;;;4.90;4.40;;;;;;;0.74;71.67;101555.97;4935218;28;20267;-70
2022/04/03 05:50:19;;;;;;;4.72;4.30;;;;;;;0.90;71.24;101557.13;4956939;28;20018;-70
2022/04/03 05:52:47;;;;;;;6.40;4.25;;;;;;;0.83;71.43;101566.94;4931383;28;20135;-69
2022/04/03 05:55:13;;;;;;;4.35;3.95;;;;;;;0.86;71.58;101563.34;4960835;28;20878;-70
2022/04/03 05:57:38;;;;;;;4.65;4.28;;;;;;;0.92;71.43;101575.34;4940748;28;20053;-69
2022/04/03 06:00:05;;;;;;;5.00;4.53;;;;;;;1.03;71.31;101568.81;4933385;28;20017;-70
2022/04/03 06:02:40;;;;;;;4.85;4.28;;;;;;;1.25;70.28;101568.03;4962740;28;20091;-69
2022/04/03 06:05:06;;;;;;;4.88;4.47;;;;;;;1.25;69.76;101559.38;4955370;28;20930;-69
2022/04/03 06:07:32;;;;;;;5.05;4.57;;;;;;;1.18;69.83;101566.56;4935469;28;20054;-70
2022/04/03 06:09:57;;;;;;;6.65;4.40;;;;;;;1.23;70.13;101574.22;4957171;28;20419;-68
2022/04/03 06:12:23;;;;;;;5.68;4.40;;;;;;;1.28;69.18;101578.34;4945618;28;20010;-69
2022/04/03 06:14:48;;;;;;;6.38;4.65;;;;;;;1.33;68.85;101579.03;4956764;28;21055;-70
2022/04/03 06:17:14;;;;;;;4.72;4.13;;;;;;;1.50;68.51;101581.03;4968308;28;20023;-70
2022/04/03 06:19:39;;;;;;;5.78;4.18;;;;;;;1.45;68.63;101584.72;4942785;28;20027;-72
2022/04/03 06:22:04;;;;;;;4.95;4.32;;;;;;;1.47;68.15;101583.75;4921733;28;20030;-69
2022/04/03 06:24:30;;;;;;;4.97;4.57;;;;;;;1.46;68.40;101584.66;4940462;28;20286;-68
2022/04/03 06:26:55;;;;;;;4.82;4.50;;;;;;;1.54;68.01;101589.59;4926700;28;20885;-68
2022/04/03 06:29:20;;;;;;;7.72;4.90;;;;;;;1.74;67.11;101590.59;4962120;28;20640;-70
2022/04/03 06:31:46;;;;;;;4.78;4.38;;;;;;;1.83;67.00;101598.06;4937928;28;20034;-69
2022/04/03 06:34:11;;;;;;;5.00;4.50;;;;;;;1.80;66.18;101593.81;4974904;28;20053;-70
2022/04/03 06:36:37;;;;;;;4.53;4.20;;;;;;;1.82;67.57;101591.13;4976266;28;20034;-69
2022/04/03 06:39:02;;;;;;;4.80;4.40;;;;;;;1.89;66.42;101595.22;4967844;28;20014;-69
2022/04/03 06:41:28;;;;;;;4.80;4.40;;;;;;;1.91;67.05;101601.22;4977130;28;20768;-70
2022/04/03 06:43:53;;;;;;;5.00;4.60;;;;;;;1.97;66.54;101594.91;4975308;28;20519;-71
2022/04/03 06:46:18;;;;;;;5.93;5.13;;;;;;;1.97;66.61;101598.38;4951337;28;20941;-69
2022/04/03 06:48:44;;;;;;;5.43;4.93;;;;;;;2.06;65.30;101603.22;4965189;28;20305;-70
2022/04/03 06:51:09;;;;;;;5.22;4.70;;;;;;;2.32;64.65;101601.34;4970524;28;20056;-68
2022/04/03 06:53:35;;;;;;;4.63;4.22;;;;;;;2.32;64.09;101598.72;4954310;28;20950;-67
2022/04/03 06:56:00;;;;;;;5.47;4.50;;;;;;;2.15;64.52;101604.63;4939351;28;20025;-70
2022/04/03 06:58:25;;;;;;;4.93;4.20;;;;;;;2.18;64.68;101601.88;4957318;28;20931;-70
2022/04/03 07:00:51;;;;;;;5.00;4.50;;;;;;;2.28;64.29;101609.34;4945481;28;20494;-69
2022/04/03 07:03:16;;;;;;;5.03;4.53;;;;;;;2.34;63.46;101607.38;4968285;28;20023;-70
2022/04/03 07:05:42;;;;;;;5.10;4.70;;;;;;;2.23;63.71;101604.34;4939240;28;20041;-68
2022/04/03 07:08:07;;;;;;;6.40;5.80;;;;;;;2.24;63.88;101616.47;4969202;28;20159;-69
2022/04/03 07:10:33;;;;;;;6.18;5.32;;;;;;;2.22;63.83;101613.06;4975067;28;20024;-72
2022/04/03 07:12:59;;;;;;;5.60;5.13;;;;;;;2.43;63.78;101613.13;4927282;28;20867;-71
2022/04/03 07:15:25;;;;;;;7.95;4.43;;;;;;;2.36;63.55;101597.69;4939180;28;20023;-70
2022/04/03 07:17:50;;;;;;;5.00;4.55;;;;;;;2.44;63.06;101607.84;4956781;28;20359;-68
2022/04/03 07:20:15;;;;;;;7.15;4.63;;;;;;;2.47;62.99;101609.44;4964533;28;20022;-69
2022/04/03 07:22:44;;;;;;;4.53;4.22;;;;;;;2.59;62.65;101616.78;4975525;28;20014;-70
2022/04/03 07:25:10;;;;;;;4.93;4.47;;;;;;;2.65;61.90;101608.72;4955251;28;20750;-68
2022/04/03 07:27:35;;;;;;;5.03;4.57;;;;;;;2.48;62.93;101608.53;4959587;28;20087;-71
2022/04/03 07:30:01;;;;;;;6.22;4.90;;;;;;;2.58;63.01;101608.09;4968854;28;20022;-71
2022/04/03 07:32:26;;;;;;;4.65;4.35;;;;;;;2.85;62.36;101617.44;4955517;28;20017;-70
2022/04/03 07:34:52;;;;;;;4.90;4.50;;;;;;;2.88;61.21;101617.34;4954796;28;20015;-70
2022/04/03 07:37:17;;;;;;;5.15;4.75;;;;;;;2.89;60.51;101621.63;4963161;28;20038;-68
2022/04/03 07:39:43;;;;;;;5.03;4.60;;;;;;;2.84;60.25;101624.44;4956991;28;20023;-67
2022/04/03 07:42:08;;;;;;;5.13;4.72;;;;;;;2.96;59.60;101624.84;4937746;28;20027;-70
2022/04/03 07:44:34;;;;;;;8.07;4.93;;;;;;;3.05;60.18;101622.69;4943735;28;20040;-69
2022/04/03 07:46:59;;;;;;;5.22;4.70;;;;;;;3.17;61.27;101615.22;4954734;28;20002;-72
2022/04/03 07:49:25;;;;;;;6.40;4.78;;;;;;;3.37;59.99;101623.03;4956362;28;20022;-71
2022/04/03 07:51:50;;;;;;;5.55;4.47;;;;;;;3.29;58.54;101622.53;4953759;28;20971;-67
2022/04/03 07:54:16;;;;;;;5.03;4.63;;;;;;;3.46;56.70;101620.94;4953581;28;20382;-71
2022/04/03 07:56:41;;;;;;;5.03;4.53;;;;;;;3.36;56.89;101618.72;4967229;28;20010;-70
2022/04/03 07:59:07;;;;;;;5.20;4.60;;;;;;;3.40;56.77;101617.66;4952244;28;20848;-70
2022/04/03 08:01:33;;;;;;;4.93;4.53;;;;;;;3.53;55.67;101615.34;4949393;28;20034;-72
2022/04/03 08:03:59;;;;;;;4.97;4.53;;;;;;;3.65;56.82;101627.00;4951320;28;20303;-71
2022/04/03 08:06:24;;;;;;;4.80;4.15;;;;;;;3.80;54.78;101633.31;4956445;28;20787;-72
2022/04/03 08:08:49;;;;;;;5.03;4.57;;;;;;;3.82;55.40;101622.78;4960049;28;20792;-72
2022/04/03 08:11:15;;;;;;;4.72;4.35;;;;;;;4.00;55.61;101624.53;4935607;28;20026;-71
2022/04/03 08:13:40;;;;;;;5.10;4.50;;;;;;;4.08;56.42;101619.78;4950606;28;20057;-70
2022/04/03 08:16:05;;;;;;;4.50;4.13;;;;;;;4.20;54.02;101631.47;4958854;28;20841;-68
2022/04/03 08:18:31;;;;;;;6.22;3.95;;;;;;;4.17;52.91;101626.34;4962218;28;20238;-67
2022/04/03 08:20:56;;;;;;;4.20;3.80;;;;;;;4.33;53.23;101631.72;4943843;28;20182;-70
2022/04/03 08:23:22;;;;;;;4.70;4.00;;;;;;;4.42;52.53;101620.75;4952538;28;20022;-69
2022/04/03 08:25:48;;;;;;;4.15;3.80;;;;;;;4.57;51.08;101626.16;4971810;28;20042;-70
2022/04/03 08:28:15;;;;;;;6.50;5.10;;;;;;;4.63;51.46;101623.25;4972737;28;20022;-69
2022/04/03 08:30:41;;;;;;;4.25;3.95;;;;;;;4.68;50.81;101629.09;4963049;28;20050;-71
2022/04/03 08:33:08;;;;;;;4.18;3.92;;;;;;;4.77;50.54;101636.50;4954703;28;20019;-71
2022/04/03 08:35:38;;;;;;;4.80;4.38;;;;;;;4.91;50.29;101632.38;4922302;28;20019;-69
2022/04/03 08:38:04;;;;;;;4.68;4.28;;;;;;;4.88;49.54;101629.88;4950042;28;20039;-72
2022/04/03 08:40:30;;;;;;;4.25;3.85;;;;;;;5.22;49.03;101626.38;4951914;28;20038;-71
2022/04/03 08:42:55;;;;;;;4.13;3.72;;;;;;;5.34;49.64;101624.88;4925543;28;20037;-71
2022/04/03 08:45:22;;;;;;;4.03;3.60;;;;;;;5.50;49.69;101628.38;4933374;28;20929;-71
2022/04/03 08:47:48;;;;;;;3.75;3.42;;;;;;;5.65;51.25;101623.22;4945411;28;20412;-71
2022/04/03 08:50:13;;;;;;;4.40;3.47;;;;;;;6.02;48.92;101618.59;4966686;28;20025;-69
2022/04/03 08:52:39;;;;;;;3.88;3.58;;;;;;;6.25;46.96;101632.25;4958752;28;20503;-71
2022/04/03 08:55:05;;;;;;;3.58;3.30;;;;;;;6.36;46.88;101635.13;4936037;28;20954;-70
2022/04/03 08:57:31;;;;;;;4.20;3.80;;;;;;;6.49;46.81;101636.09;4938718;28;20122;-71
2022/04/03 08:59:56;;;;;;;4.43;3.47;;;;;;;6.56;43.97;101631.34;4959260;28;20542;-69
2022/04/03 09:02:22;;;;;;;5.95;3.40;;;;;;;6.50;43.59;101629.06;4959388;28;20975;-69
2022/04/03 09:04:47;;;;;;;3.70;3.50;;;;;;;6.97;43.47;101627.22;4936999;28;20237;-71
2022/04/03 09:07:17;;;;;;;3.13;2.90;;;;;;;7.34;42.90;101630.25;4943029;28;20015;-72
2022/04/03 09:09:42;;;;;;;4.57;2.63;;;;;;;7.62;42.42;101631.19;4960905;28;20706;-71
2022/04/03 09:12:18;;;;;;;2.90;2.70;;;;;;;7.93;41.05;101629.28;4968217;28;20976;-71
2022/04/03 09:14:44;;;;;;;3.28;2.70;;;;;;;8.14;41.30;101622.59;4945019;28;20348;-70
2022/04/03 09:17:09;;;;;;;3.05;2.72;;;;;;;8.07;39.67;101631.84;4959216;28;20015;-72
2022/04/03 09:19:35;;;;;;;2.92;2.80;;;;;;;7.92;40.80;101625.75;4948772;28;20034;-71
2022/04/03 09:22:01;;;;;;;2.75;2.65;;;;;;;8.71;41.09;101623.31;4953845;28;20425;-71
2022/04/03 09:24:26;;;;;;;4.10;2.55;;;;;;;8.95;38.41;101634.00;4943242;28;20137;-71
2022/04/03 09:26:57;;;;;;;2.70;2.60;;;;;;;8.42;38.31;101634.84;4954753;28;20827;-71
2022/04/03 09:29:22;;;;;;;3.00;2.80;;;;;;;8.25;37.46;101633.31;4941173;28;20597;-70
2022/04/03 09:31:48;;;;;;;2.60;2.50;;;;;;;7.71;39.12;101627.97;4963427;28;20701;-70
2022/04/03 09:34:24;;;;;;;2.88;2.42;;;;;;;7.71;39.93;101634.09;4958338;28;20011;-73
2022/04/03 09:36:59;;;;;;;2.60;2.50;;;;;;;7.70;37.88;101634.19;4939198;28;20569;-71
2022/04/03 09:39:26;;;;;;;2.83;2.63;;;;;;;7.43;38.50;101639.38;4966348;28;20030;-69
2022/04/03 09:42:12;;;;;;;2.67;2.58;;;;;;;7.65;39.09;101631.84;4961508;28;20061;-71
2022/04/03 09:44:39;;;;;;;2.35;2.20;;;;;;;8.00;36.87;101641.94;4954499;28;20043;-70
2022/04/03 09:47:29;;;;;;;2.63;2.53;;;;;;;8.16;36.36;101631.25;4966722;28;20058;-69
2022/04/03 09:49:58;;;;;;;2.13;2.03;;;;;;;8.13;36.21;101630.63;4948175;28;20010;-72
2022/04/03 09:52:43;;;;;;;2.20;1.98;;;;;;;8.25;36.87;101633.31;4968016;28;20181;-71
2022/04/03 09:55:18;;;;;;;2.83;1.98;;;;;;;8.29;36.24;101627.81;4972431;28;20547;-70
2022/04/03 09:57:45;;;;;;;2.97;2.10;;;;;;;8.64;35.46;101640.50;4973252;28;20023;-69
2022/04/03 10:00:11;;;;;;;2.45;2.35;;;;;;;10.03;35.85;101625.66;4953954;28;20030;-71
2022/04/03 10:02:37;;;;;;;2.72;2.63;;;;;;;11.26;35.52;101632.31;4946914;28;20011;-71
2022/04/03 10:05:02;;;;;;;2.58;2.35;;;;;;;11.09;33.99;101630.13;4969549;28;20046;-71
2022/04/03 10:07:28;;;;;;;2.20;2.10;;;;;;;10.56;34.26;101628.81;4977944;28;20463;-69
2022/04/03 10:09:53;;;;;;;2.03;1.92;;;;;;;10.31;33.34;101617.38;4952677;28;20795;-71
2022/04/03 10:12:20;;;;;;;2.30;2.10;;;;;;;10.42;33.58;101621.03;4953014;28;20092;-71
2022/04/03 10:14:46;;;;;;;2.40;2.20;;;;;;;10.85;33.96;101622.28;4943625;28;20764;-70
2022/04/03 10:17:12;;;;;;;1.98;1.88;;;;;;;12.03;31.90;101614.81;4960871;28;20011;-70
2022/04/03 10:19:38;;;;;;;2.05;1.95;;;;;;;12.21;30.96;101617.75;4973001;28;20509;-70
2022/04/03 10:22:03;;;;;;;1.83;1.73;;;;;;;11.87;30.99;101612.50;4948857;28;20872;-70
2022/04/03 10:24:29;;;;;;;1.70;1.60;;;;;;;10.97;31.81;101608.06;4946297;28;20146;-70
2022/04/03 10:27:12;;;;;;;2.45;1.50;;;;;;;10.71;30.49;101618.03;4950752;28;20032;-68
2022/04/03 10:29:38;;;;;;;2.00;1.90;;;;;;;10.67;31.25;101617.41;4976759;28;20011;-71
2022/04/03 10:32:04;;;;;;;3.10;2.35;;;;;;;10.46;32.18;101614.56;4951255;28;20025;-70
2022/04/03 10:34:30;;;;;;;4.47;2.10;;;;;;;10.10;33.13;101611.03;4968443;28;20725;-70
2022/04/03 10:36:55;;;;;;;2.38;2.17;;;;;;;9.42;33.00;101618.50;4958343;28;20077;-70
2022/04/03 10:39:28;;;;;;;4.05;2.47;;;;;;;9.82;35.15;101606.91;4938867;28;20061;-72
2022/04/03 10:42:13;;;;;;;2.10;1.90;;;;;;;9.68;34.32;101610.53;4937046;28;20436;-72
2022/04/03 10:44:39;;;;;;;3.30;2.40;;;;;;;9.49;32.23;101611.84;4950139;28;20042;-70
2022/04/03 10:47:04;;;;;;;2.42;2.33;;;;;;;9.92;34.27;101603.44;4921426;28;20023;-73
2022/04/03 10:49:30;;;;;;;2.67;2.57;;;;;;;9.90;34.05;101601.88;4947916;28;20018;-70
2022/04/03 10:52:03;;;;;;;3.13;2.50;;;;;;;9.75;34.99;101609.13;4923138;28;20909;-74
2022/04/03 10:54:30;;;;;;;2.60;2.40;;;;;;;9.73;34.64;101603.94;4914073;28;21600;-72
2022/04/03 10:57:31;;;;;;;2.95;2.75;;;;;;;9.94;35.34;101600.69;4947955;28;20069;-69
2022/04/03 11:00:14;;;;;;;3.22;2.30;;;;;;;10.05;35.15;101594.63;4939323;28;20036;-72
2022/04/03 11:02:55;;;;;;;4.60;3.33;;;;;;;9.84;33.94;101589.94;4941677;28;20091;-72
2022/04/03 11:05:27;;;;;;;2.95;2.80;;;;;;;10.21;34.39;101592.56;4940527;28;21025;-70
2022/04/03 11:08:02;;;;;;;3.22;2.72;;;;;;;10.11;32.46;101592.38;4942404;28;20034;-71
2022/04/03 11:10:59;;;;;;;2.97;2.75;;;;;;;10.11;33.29;101591.53;4939745;28;20034;-72
2022/04/03 11:13:31;;;;;;;6.40;2.53;;;;;;;10.08;33.06;101587.34;4940000;28;20029;-73
2022/04/03 11:16:04;;;;;;;2.90;2.70;;;;;;;9.97;31.69;101584.63;4953046;28;20134;-72
2022/04/03 11:18:39;;;;;;;3.30;2.55;;;;;;;10.51;31.02;101577.19;4895831;28;20178;-70
2022/04/03 11:21:31;;;;;;;2.90;2.70;;;;;;;11.62;32.03;101585.31;4934057;28;20026;-72
2022/04/03 11:24:05;;;;;;;3.47;2.50;;;;;;;11.46;31.68;101582.22;4928907;28;20976;-71
2022/04/03 11:26:31;;;;;;;2.80;2.58;;;;;;;11.57;32.84;101576.88;4943077;28;20063;-72
2022/04/03 11:28:56;;;;;;;2.70;2.45;;;;;;;11.65;32.09;101574.47;4942877;28;20027;-72